createdAt,value
2023-05-06T00:00:33.986Z,91.58
2023-05-06T00:01:33.976Z,90.69
2023-05-06T00:02:34.022Z,90.27
2023-05-06T00:03:34.069Z,90.17
2023-05-06T00:04:33.999Z,89.96
2023-05-06T00:05:33.969Z,89.32
2023-05-06T00:06:33.926Z,89.86
2023-05-06T00:07:33.921Z,88.70
2023-05-06T00:08:33.913Z,89.22
2023-05-06T00:09:33.888Z,88.32
2023-05-06T00:10:33.910Z,89.41
2023-05-06T00:11:33.869Z,90.36
2023-05-06T00:12:33.871Z,90.88
2023-05-06T00:13:33.854Z,91.77
2023-05-06T00:14:33.871Z,92.14
2023-05-06T00:15:33.836Z,91.62
2023-05-06T00:16:33.890Z,90.78
2023-05-06T00:17:33.814Z,91.30
2023-05-06T00:18:33.796Z,90.73
2023-05-06T00:19:33.786Z,89.26
2023-05-06T00:20:33.786Z,88.46
2023-05-06T00:21:33.782Z,89.72
2023-05-06T00:22:33.792Z,91.09
2023-05-06T00:23:33.751Z,91.20
2023-05-06T00:24:33.736Z,91.55
2023-05-06T00:25:33.729Z,90.08
2023-05-06T00:26:33.725Z,89.76
2023-05-06T00:27:33.713Z,88.78
2023-05-06T00:28:33.724Z,86.88
2023-05-06T00:29:33.702Z,86.88
2023-05-06T00:30:33.689Z,85.73
2023-05-06T00:31:33.743Z,86.25
2023-05-06T00:32:33.708Z,85.48
2023-05-06T00:33:33.664Z,84.22
2023-05-06T00:34:33.697Z,84.11
2023-05-06T00:35:33.642Z,84.91
2023-05-06T00:36:33.635Z,83.34
2023-05-06T00:37:33.630Z,84.49
2023-05-06T00:38:33.615Z,88.80
2023-05-06T00:39:33.607Z,88.63
2023-05-06T00:40:33.655Z,89.79
2023-05-06T00:41:33.606Z,90.73
2023-05-06T00:42:33.590Z,88.00
2023-05-06T00:43:33.581Z,90.94
2023-05-06T00:44:33.562Z,91.26
2023-05-06T00:45:33.587Z,88.84
2023-05-06T00:46:33.573Z,86.11
2023-05-06T00:47:33.551Z,88.63
2023-05-06T00:48:33.525Z,91.58
2023-05-06T00:49:33.510Z,91.58
2023-05-06T00:50:33.502Z,91.83
2023-05-06T00:51:33.476Z,92.19
2023-05-06T00:52:33.497Z,93.24
2023-05-06T00:53:33.484Z,93.80
2023-05-06T00:54:33.451Z,94.06
2023-05-06T00:55:33.444Z,94.59
2023-05-06T00:56:33.432Z,95.60
2023-05-06T00:57:33.419Z,94.54
2023-05-06T00:58:33.437Z,95.39
2023-05-06T00:59:33.407Z,94.44
2023-05-06T01:00:33.410Z,94.96
2023-05-06T01:01:33.503Z,94.65
2023-05-06T01:02:39.869Z,95.39
2023-05-06T01:03:34.427Z,96.02
2023-05-06T01:04:33.375Z,95.91
2023-05-06T01:05:33.356Z,95.81
2023-05-06T01:06:33.335Z,95.53
2023-05-06T01:07:33.336Z,95.75
2023-05-06T01:08:33.325Z,95.43
2023-05-06T01:09:33.359Z,96.17
2023-05-06T01:10:33.318Z,94.80
2023-05-06T01:11:33.299Z,93.43
2023-05-06T01:12:33.309Z,94.06
2023-05-06T01:13:33.328Z,93.11
2023-05-06T01:14:33.291Z,92.16
2023-05-06T01:15:33.414Z,93.28
2023-05-06T01:16:33.266Z,91.49
2023-05-06T01:17:33.265Z,93.85
2023-05-06T01:18:33.239Z,95.64
2023-05-06T01:19:33.228Z,96.17
2023-05-06T01:20:33.214Z,96.80
2023-05-06T01:21:33.255Z,96.06
2023-05-06T01:22:33.198Z,95.32
2023-05-06T01:23:33.189Z,92.80
2023-05-06T01:24:33.182Z,93.57
2023-05-06T01:25:33.171Z,95.85
2023-05-06T01:26:33.162Z,96.06
2023-05-06T01:27:33.184Z,96.80
2023-05-06T01:28:33.272Z,95.95
2023-05-06T01:29:33.203Z,95.01
2023-05-06T01:30:33.129Z,93.95
2023-05-06T01:31:33.208Z,95.22
2023-05-06T01:32:33.135Z,95.95
2023-05-06T01:33:33.120Z,96.17
2023-05-06T01:34:33.079Z,96.73
2023-05-06T01:35:33.070Z,97.22
2023-05-06T01:36:33.069Z,97.22
2023-05-06T01:41:29.614Z,96.17
2023-05-06T01:42:29.536Z,96.69
2023-05-06T01:43:29.537Z,96.48
2023-05-06T01:44:29.535Z,95.85
2023-05-06T01:45:29.511Z,94.38
2023-05-06T01:46:29.626Z,94.06
2023-05-06T01:47:29.551Z,95.37
2023-05-06T01:48:29.474Z,96.42
2023-05-06T01:49:29.474Z,96.31
2023-05-06T01:50:29.464Z,96.84
2023-05-06T01:51:29.455Z,97.41
2023-05-06T01:52:29.438Z,97.41
2023-05-06T01:53:29.470Z,96.67
2023-05-06T01:54:29.422Z,96.78
2023-05-06T01:55:29.434Z,97.63
2023-05-06T01:56:29.401Z,98.36
2023-05-06T01:57:29.395Z,97.67
2023-05-06T01:58:29.396Z,97.56
2023-05-06T01:59:29.732Z,97.99
2023-05-06T02:00:29.386Z,98.83
2023-05-06T02:01:29.398Z,99.41
2023-05-06T02:02:29.485Z,99.52
2023-05-06T02:03:29.472Z,99.31
2023-05-06T02:04:29.299Z,98.63
2023-05-06T02:05:29.292Z,97.73
2023-05-06T02:06:29.266Z,96.89
2023-05-06T02:07:29.299Z,96.47
2023-05-06T02:08:29.301Z,95.51
2023-05-06T02:09:29.285Z,97.20
2023-05-06T02:10:29.277Z,97.20
2023-05-06T02:11:29.298Z,97.94
2023-05-06T02:12:29.267Z,98.05
2023-05-06T02:13:29.249Z,97.09
2023-05-06T02:14:29.198Z,97.20
2023-05-06T02:15:29.243Z,95.67
2023-05-06T02:16:29.252Z,96.89
2023-05-06T02:17:29.198Z,96.47
2023-05-06T02:18:29.146Z,97.94
2023-05-06T02:19:29.145Z,98.05
2023-05-06T02:20:29.128Z,98.68
2023-05-06T02:21:29.123Z,98.72
2023-05-06T02:22:29.101Z,98.51
2023-05-06T02:23:29.117Z,99.57
2023-05-06T02:24:29.091Z,99.04
2023-05-06T02:25:29.070Z,96.19
2023-05-06T02:26:29.069Z,98.09
2023-05-06T02:27:29.052Z,99.52
2023-05-06T02:28:29.065Z,98.89
2023-05-06T02:29:29.049Z,96.36
2023-05-06T02:30:29.020Z,94.67
2023-05-06T02:31:29.046Z,97.41
2023-05-06T02:32:29.020Z,96.78
2023-05-06T02:33:28.992Z,94.99
2023-05-06T02:34:28.985Z,95.73
2023-05-06T02:35:29.000Z,93.73
2023-05-06T02:36:28.963Z,95.94
2023-05-06T02:37:28.998Z,96.47
2023-05-06T02:38:28.954Z,97.63
2023-05-06T02:39:28.934Z,96.15
2023-05-06T02:40:28.932Z,97.83
2023-05-06T02:41:28.951Z,98.15
2023-05-06T02:42:28.918Z,96.78
2023-05-06T02:43:28.907Z,98.05
2023-05-06T02:44:28.905Z,98.68
2023-05-06T02:45:28.908Z,97.31
2023-05-06T02:46:28.869Z,95.83
2023-05-06T02:47:28.924Z,96.15
2023-05-06T02:48:28.866Z,95.62
2023-05-06T02:49:28.847Z,94.29
2023-05-06T02:50:28.853Z,96.83
2023-05-06T02:51:28.826Z,98.09
2023-05-06T02:52:28.814Z,98.41
2023-05-06T02:53:28.832Z,99.15
2023-05-06T02:54:28.794Z,96.77
2023-05-06T02:55:28.785Z,96.34
2023-05-06T02:56:28.795Z,98.24
2023-05-06T02:57:28.764Z,98.92
2023-05-06T02:58:28.760Z,99.99
2023-05-06T02:59:28.761Z,99.98
2023-05-06T03:00:28.729Z,99.99
2023-05-06T03:01:28.756Z,99.99
2023-05-06T03:02:28.730Z,99.82
2023-05-06T03:03:28.696Z,98.98
2023-05-06T03:04:28.752Z,98.77
2023-05-06T03:05:28.919Z,98.87
2023-05-06T03:06:28.664Z,97.81
2023-05-06T03:07:28.669Z,95.81
2023-05-06T03:08:28.672Z,94.29
2023-05-06T03:09:28.636Z,93.87
2023-05-06T03:10:28.646Z,93.87
2023-05-06T03:11:28.641Z,91.76
2023-05-06T03:12:28.620Z,92.46
2023-05-06T03:13:28.599Z,93.19
2023-05-06T03:14:28.605Z,91.61
2023-05-06T03:15:28.583Z,92.92
2023-05-06T03:16:28.605Z,96.93
2023-05-06T03:17:28.648Z,97.67
2023-05-06T03:18:28.557Z,97.77
2023-05-06T03:19:28.553Z,98.98
2023-05-06T03:20:28.549Z,99.99
2023-05-06T03:21:28.591Z,99.99
2023-05-06T03:22:28.530Z,99.99
2023-05-06T03:23:28.538Z,99.99
2023-05-06T03:24:28.500Z,99.99
2023-05-06T03:25:28.495Z,99.40
2023-05-06T03:26:28.498Z,99.61
2023-05-06T03:27:28.482Z,99.99
2023-05-06T03:28:28.468Z,99.19
2023-05-06T03:29:28.485Z,97.29
2023-05-06T03:30:28.447Z,96.13
2023-05-06T03:31:28.480Z,99.46
2023-05-06T03:32:28.476Z,99.99
2023-05-06T03:33:28.427Z,99.99
2023-05-06T03:34:28.404Z,99.99
2023-05-06T03:35:28.424Z,99.25
2023-05-06T03:36:28.383Z,96.83
2023-05-06T03:37:28.372Z,96.72
2023-05-06T03:38:28.375Z,98.19
2023-05-06T03:39:28.355Z,99.67
2023-05-06T03:40:28.343Z,99.67
2023-05-06T03:41:28.344Z,99.57
2023-05-06T03:42:28.332Z,99.99
2023-05-06T03:43:28.336Z,99.99
2023-05-06T03:44:28.304Z,99.99
2023-05-06T03:45:28.282Z,99.99
2023-05-06T03:46:28.368Z,99.99
2023-05-06T03:47:28.362Z,99.99
2023-05-06T03:48:28.262Z,99.99
2023-05-06T03:49:28.247Z,99.04
2023-05-06T03:50:28.241Z,97.45
2023-05-06T03:51:28.227Z,97.56
2023-05-06T03:52:28.226Z,98.72
2023-05-06T03:53:28.268Z,99.25
2023-05-06T03:54:28.200Z,99.57
2023-05-06T03:55:28.194Z,99.99
2023-05-06T03:56:28.172Z,99.99
2023-05-06T03:57:28.173Z,99.99
2023-05-06T03:58:28.166Z,99.99
2023-05-06T03:59:28.194Z,99.99
2023-05-06T04:00:28.148Z,99.99
2023-05-06T04:01:28.145Z,99.99
2023-05-06T04:02:28.210Z,99.99
2023-05-06T04:03:28.224Z,99.99
2023-05-06T04:04:28.114Z,99.84
2023-05-06T04:05:28.120Z,98.36
2023-05-06T04:06:28.094Z,96.99
2023-05-06T04:07:28.076Z,97.09
2023-05-06T04:08:28.077Z,96.11
2023-05-06T04:09:28.079Z,95.37
2023-05-06T04:10:28.062Z,97.89
2023-05-06T04:11:29.717Z,97.47
2023-05-06T04:12:28.047Z,96.63
2023-05-06T04:13:28.022Z,97.79
2023-05-06T04:14:28.042Z,98.43
2023-05-06T04:15:28.001Z,98.53
2023-05-06T04:16:28.044Z,97.58
2023-05-06T04:17:28.064Z,98.38
2023-05-06T04:18:27.980Z,99.99
2023-05-06T04:19:27.963Z,99.99
2023-05-06T04:20:27.954Z,98.55
2023-05-06T04:21:27.950Z,98.23
2023-05-06T04:22:27.935Z,99.60
2023-05-06T04:23:27.988Z,99.99
2023-05-06T04:24:27.906Z,99.99
2023-05-06T04:25:27.895Z,99.99
2023-05-06T04:26:27.880Z,99.99
2023-05-06T04:27:27.885Z,99.98
2023-05-06T04:28:27.870Z,99.99
2023-05-06T04:29:27.883Z,99.99
2023-05-06T04:30:27.852Z,99.99
2023-05-06T04:31:27.910Z,99.99
2023-05-06T04:32:27.860Z,99.99
2023-05-06T04:33:27.825Z,99.99
2023-05-06T04:34:27.910Z,99.99
2023-05-06T04:35:27.837Z,99.99
2023-05-06T04:36:27.802Z,99.99
2023-05-06T04:37:27.781Z,99.99
2023-05-06T04:38:27.782Z,99.99
2023-05-06T04:39:27.767Z,98.53
2023-05-06T04:40:27.767Z,96.91
2023-05-06T04:41:27.773Z,97.18
2023-05-06T04:42:27.780Z,98.19
2023-05-06T04:43:27.761Z,98.25
2023-05-06T04:44:27.731Z,96.11
2023-05-06T04:45:27.729Z,95.33
2023-05-06T04:46:27.712Z,95.75
2023-05-06T04:47:27.733Z,96.53
2023-05-06T04:48:27.706Z,97.99
2023-05-06T04:49:27.680Z,97.05
2023-05-06T04:50:27.677Z,96.84
2023-05-06T04:51:27.674Z,96.63
2023-05-06T04:52:27.658Z,96.53
2023-05-06T04:53:27.736Z,96.06
2023-05-06T04:54:27.634Z,96.06
2023-05-06T04:55:27.655Z,96.02
2023-05-06T04:56:27.637Z,96.14
2023-05-06T04:57:27.618Z,95.31
2023-05-06T04:58:27.605Z,95.72
2023-05-06T04:59:27.622Z,95.93
2023-05-06T05:00:27.577Z,95.83
2023-05-06T05:01:27.600Z,95.47
2023-05-06T05:02:27.685Z,95.47
2023-05-06T05:03:27.708Z,94.90
2023-05-06T05:04:27.536Z,93.71
2023-05-06T05:05:27.543Z,92.10
2023-05-06T05:06:27.507Z,91.18
2023-05-06T05:07:27.509Z,89.51
2023-05-06T05:08:27.485Z,89.06
2023-05-06T05:09:27.471Z,88.39
2023-05-06T05:10:27.496Z,87.30
2023-05-06T05:11:27.473Z,86.33
2023-05-06T05:12:27.435Z,85.46
2023-05-06T05:13:27.434Z,84.59
2023-05-06T05:14:27.446Z,83.72
2023-05-06T05:15:27.409Z,83.26
2023-05-06T05:16:27.436Z,82.43
2023-05-06T05:17:27.663Z,81.25
2023-05-06T05:18:27.394Z,81.81
2023-05-06T05:19:27.386Z,82.22
2023-05-06T05:20:27.389Z,82.84
2023-05-06T05:21:27.350Z,82.70
2023-05-06T05:22:27.357Z,82.04
2023-05-06T05:23:27.364Z,80.76
2023-05-06T05:24:27.343Z,80.87
2023-05-06T05:25:27.313Z,80.76
2023-05-06T05:26:27.312Z,80.58
2023-05-06T05:27:27.302Z,81.06
2023-05-06T05:28:27.293Z,78.44
2023-05-06T05:29:27.305Z,77.26
2023-05-06T05:30:27.270Z,77.05
2023-05-06T05:31:27.357Z,76.81
2023-05-06T05:32:27.269Z,76.61
2023-05-06T05:33:27.310Z,73.67
2023-05-06T05:34:27.237Z,75.32
2023-05-06T05:35:27.244Z,75.09
2023-05-06T05:36:27.214Z,74.67
2023-05-06T05:37:27.207Z,74.57
2023-05-06T05:38:27.185Z,73.84
2023-05-06T05:39:27.184Z,73.39
2023-05-06T05:40:27.190Z,74.43
2023-05-06T05:41:27.180Z,73.81
2023-05-06T05:42:27.153Z,73.08
2023-05-06T05:43:27.156Z,72.94
2023-05-06T05:44:27.134Z,74.40
2023-05-06T05:45:27.137Z,73.98
2023-05-06T05:46:27.121Z,71.39
2023-05-06T05:47:27.197Z,70.15
2023-05-06T05:48:27.088Z,71.78
2023-05-06T05:49:27.071Z,72.71
2023-05-06T05:50:27.063Z,71.74
2023-05-06T05:51:27.054Z,69.78
2023-05-06T05:52:27.051Z,68.43
2023-05-06T05:53:27.052Z,68.30
2023-05-06T05:54:27.027Z,68.82
2023-05-06T05:55:27.004Z,69.06
2023-05-06T05:56:27.016Z,69.06
2023-05-06T05:57:26.983Z,69.43
2023-05-06T05:58:27.010Z,67.99
2023-05-06T05:59:27.055Z,67.58
2023-05-06T06:00:26.970Z,67.27
2023-05-06T06:01:26.941Z,67.47
2023-05-06T06:02:27.026Z,66.33
2023-05-06T06:03:27.059Z,66.85
2023-05-06T06:04:26.977Z,66.61
2023-05-06T06:05:26.927Z,67.13
2023-05-06T06:06:27.088Z,63.69
2023-05-06T06:07:26.902Z,65.97
2023-05-06T06:08:26.888Z,65.14
2023-05-06T06:09:26.878Z,65.14
2023-05-06T06:10:26.869Z,65.55
2023-05-06T06:11:26.880Z,65.03
2023-05-06T06:12:26.844Z,65.58
2023-05-06T06:13:28.561Z,64.14
2023-05-06T06:14:26.837Z,61.97
2023-05-06T06:15:26.802Z,63.93
2023-05-06T06:16:26.845Z,63.10
2023-05-06T06:17:26.832Z,64.34
2023-05-06T06:18:26.779Z,64.34
2023-05-06T06:19:26.769Z,64.03
2023-05-06T06:20:26.754Z,64.11
2023-05-06T06:21:26.758Z,63.21
2023-05-06T06:22:26.746Z,60.60
2023-05-06T06:23:26.774Z,64.42
2023-05-06T06:24:26.730Z,61.63
2023-05-06T06:25:26.700Z,62.66
2023-05-06T06:26:26.690Z,62.84
2023-05-06T06:27:26.681Z,64.07
2023-05-06T06:28:26.668Z,60.98
2023-05-06T06:29:26.698Z,62.32
2023-05-06T06:30:26.642Z,60.85
2023-05-06T06:31:26.653Z,60.85
2023-05-06T06:32:26.656Z,59.82
2023-05-06T06:33:26.623Z,58.99
2023-05-06T06:34:26.606Z,58.06
2023-05-06T06:35:26.622Z,59.30
2023-05-06T06:36:26.597Z,60.54
2023-05-06T06:37:26.578Z,59.41
2023-05-06T06:38:26.564Z,60.95
2023-05-06T06:39:26.566Z,61.96
2023-05-06T06:40:26.546Z,60.89
2023-05-06T06:41:26.560Z,58.94
2023-05-06T06:42:27.284Z,58.11
2023-05-06T06:43:26.544Z,58.63
2023-05-06T06:44:26.497Z,58.60
2023-05-06T06:45:26.504Z,57.06
2023-05-06T06:46:26.484Z,57.65
2023-05-06T06:47:26.533Z,58.26
2023-05-06T06:48:26.466Z,58.03
2023-05-06T06:49:26.457Z,57.10
2023-05-06T06:50:26.476Z,55.43
2023-05-06T06:51:26.456Z,56.77
2023-05-06T06:52:26.426Z,53.69
2023-05-06T06:53:26.470Z,54.10
2023-05-06T06:54:26.439Z,54.92
2023-05-06T06:55:26.412Z,55.21
2023-05-06T06:56:26.386Z,55.00
2023-05-06T06:57:26.376Z,53.77
2023-05-06T06:58:26.366Z,54.05
2023-05-06T06:59:26.398Z,53.85
2023-05-06T07:00:26.370Z,54.74
2023-05-06T07:01:26.500Z,54.85
2023-05-06T07:02:26.394Z,52.69
2023-05-06T07:03:26.327Z,53.38
2023-05-06T07:04:26.341Z,49.69
2023-05-06T07:05:26.360Z,52.76
2023-05-06T07:06:26.283Z,52.25
2023-05-06T07:07:26.276Z,53.87
2023-05-06T07:08:26.277Z,52.41
2023-05-06T07:09:26.272Z,52.00
2023-05-06T07:10:26.281Z,50.54
2023-05-06T07:11:26.265Z,50.23
2023-05-06T07:12:26.215Z,50.34
2023-05-06T07:13:26.214Z,49.62
2023-05-06T07:14:26.218Z,48.90
2023-05-06T07:15:26.189Z,51.03
2023-05-06T07:16:26.183Z,50.10
2023-05-06T07:17:26.287Z,50.42
2023-05-06T07:18:26.157Z,50.82
2023-05-06T07:19:26.152Z,45.70
2023-05-06T07:20:26.142Z,48.28
2023-05-06T07:21:26.134Z,49.90
2023-05-06T07:22:26.109Z,50.93
2023-05-06T07:23:26.141Z,50.80
2023-05-06T07:24:26.096Z,49.44
2023-05-06T07:25:26.093Z,49.22
2023-05-06T07:26:26.077Z,48.60
2023-05-06T07:27:26.075Z,49.60
2023-05-06T07:28:26.053Z,47.97
2023-05-06T07:29:26.081Z,46.53
2023-05-06T07:30:26.105Z,47.76
2023-05-06T07:31:26.093Z,47.85
2023-05-06T07:32:26.032Z,47.94
2023-05-06T07:33:26.012Z,42.44
2023-05-06T07:34:25.997Z,45.94
2023-05-06T07:35:26.003Z,46.04
2023-05-06T07:36:25.971Z,48.48
2023-05-06T07:37:25.970Z,43.28
2023-05-06T07:38:25.948Z,48.71
2023-05-06T07:39:25.973Z,47.25
2023-05-06T07:40:25.938Z,46.84
2023-05-06T07:41:25.950Z,47.13
2023-05-06T07:42:25.988Z,46.00
2023-05-06T07:43:25.902Z,44.96
2023-05-06T07:44:25.898Z,44.35
2023-05-06T07:45:25.884Z,45.06
2023-05-06T07:46:25.939Z,44.73
2023-05-06T07:47:26.036Z,44.22
2023-05-06T07:48:25.934Z,43.02
2023-05-06T07:49:25.836Z,43.63
2023-05-06T07:50:25.830Z,43.91
2023-05-06T07:51:25.812Z,45.55
2023-05-06T07:52:25.829Z,43.41
2023-05-06T07:53:25.818Z,44.31
2023-05-06T07:54:25.785Z,43.69
2023-05-06T07:55:25.772Z,45.40
2023-05-06T07:56:25.767Z,44.08
2023-05-06T07:57:25.754Z,44.08
2023-05-06T07:58:25.741Z,43.67
2023-05-06T07:59:25.767Z,44.98
2023-05-06T08:00:25.717Z,42.96
2023-05-06T08:01:25.719Z,44.18
2023-05-06T08:02:25.893Z,43.77
2023-05-06T08:03:25.923Z,43.96
2023-05-06T08:04:25.699Z,43.85
2023-05-06T08:05:25.700Z,42.51
2023-05-06T08:06:25.657Z,42.92
2023-05-06T08:07:25.656Z,42.41
2023-05-06T08:08:25.638Z,42.69
2023-05-06T08:09:25.638Z,42.77
2023-05-06T08:10:25.650Z,42.98
2023-05-06T08:11:25.688Z,42.80
2023-05-06T08:12:25.606Z,41.98
2023-05-06T08:13:25.602Z,40.17
2023-05-06T08:14:25.577Z,42.61
2023-05-06T08:15:25.604Z,42.49
2023-05-06T08:16:25.804Z,42.88
2023-05-06T08:17:25.642Z,42.96
2023-05-06T08:18:25.550Z,43.16
2023-05-06T08:19:25.536Z,43.65
2023-05-06T08:20:25.525Z,42.82
2023-05-06T08:21:25.517Z,43.00
2023-05-06T08:22:25.492Z,41.99
2023-05-06T08:23:25.518Z,42.17
2023-05-06T08:24:25.481Z,40.64
2023-05-06T08:25:25.469Z,40.64
2023-05-06T08:26:25.453Z,40.52
2023-05-06T08:27:25.451Z,40.20
2023-05-06T08:28:25.522Z,39.00
2023-05-06T08:29:25.446Z,39.30
2023-05-06T08:30:25.407Z,39.81
2023-05-06T08:31:25.440Z,36.08
2023-05-06T08:32:25.605Z,41.11
2023-05-06T08:33:25.392Z,43.32
2023-05-06T08:34:25.389Z,42.59
2023-05-06T08:35:25.386Z,41.66
2023-05-06T08:36:25.384Z,42.25
2023-05-06T08:37:25.359Z,42.63
2023-05-06T08:38:25.334Z,41.30
2023-05-06T08:39:25.328Z,39.45
2023-05-06T08:40:25.313Z,38.62
2023-05-06T08:41:25.325Z,39.11
2023-05-06T08:42:25.285Z,34.48
2023-05-06T08:43:25.275Z,38.45
2023-05-06T08:44:25.264Z,37.70
2023-05-06T08:45:26.799Z,40.23
2023-05-06T08:46:25.327Z,40.22
2023-05-06T08:47:25.282Z,39.08
2023-05-06T08:48:25.225Z,38.37
2023-05-06T08:49:25.218Z,36.46
2023-05-06T08:50:25.215Z,38.09
2023-05-06T08:51:26.080Z,38.17
2023-05-06T08:52:25.204Z,39.37
2023-05-06T08:53:25.199Z,38.01
2023-05-06T08:54:25.169Z,37.59
2023-05-06T08:55:25.152Z,31.73
2023-05-06T08:56:25.140Z,36.29
2023-05-06T08:57:25.216Z,34.97
2023-05-06T08:58:25.121Z,35.75
2023-05-06T08:59:25.175Z,36.17
2023-05-06T09:00:25.120Z,35.05
2023-05-06T09:01:25.143Z,36.46
2023-05-06T09:02:25.123Z,34.78
2023-05-06T09:03:25.295Z,37.07
2023-05-06T09:04:25.067Z,36.66
2023-05-06T09:05:25.078Z,37.60
2023-05-06T09:06:25.062Z,39.13
2023-05-06T09:07:25.041Z,36.79
2023-05-06T09:08:25.005Z,37.38
2023-05-06T09:09:24.994Z,38.99
2023-05-06T09:10:24.995Z,34.00
2023-05-06T09:11:25.019Z,35.19
2023-05-06T09:12:24.970Z,38.37
2023-05-06T09:13:24.968Z,37.23
2023-05-06T09:14:24.941Z,39.25
2023-05-06T09:15:24.945Z,38.31
2023-05-06T09:16:24.958Z,38.36
2023-05-06T09:17:25.012Z,37.53
2023-05-06T09:18:24.912Z,35.56
2023-05-06T09:19:24.905Z,34.99
2023-05-06T09:20:24.890Z,34.88
2023-05-06T09:21:24.884Z,35.78
2023-05-06T09:22:24.864Z,35.38
2023-05-06T09:23:24.912Z,37.17
2023-05-06T09:24:24.848Z,35.34
2023-05-06T09:25:24.863Z,35.55
2023-05-06T09:26:24.819Z,34.65
2023-05-06T09:27:24.821Z,36.36
2023-05-06T09:28:24.809Z,37.56
2023-05-06T09:29:24.842Z,36.32
2023-05-06T09:30:24.794Z,32.79
2023-05-06T09:31:24.848Z,34.44
2023-05-06T09:32:24.783Z,34.14
2023-05-06T09:33:24.766Z,33.58
2023-05-06T09:34:24.748Z,35.92
2023-05-06T09:35:24.762Z,35.09
2023-05-06T09:36:24.721Z,35.39
2023-05-06T09:37:24.716Z,36.29
2023-05-06T09:38:24.701Z,33.83
2023-05-06T09:39:24.691Z,35.66
2023-05-06T09:40:24.679Z,33.12
2023-05-06T09:41:24.749Z,35.04
2023-05-06T09:42:24.670Z,37.46
2023-05-06T09:43:24.653Z,37.42
2023-05-06T09:44:24.636Z,35.58
2023-05-06T09:45:24.625Z,34.55
2023-05-06T09:46:24.659Z,35.16
2023-05-06T09:47:24.673Z,32.65
2023-05-06T09:48:24.607Z,33.38
2023-05-06T09:49:24.598Z,34.91
2023-05-06T09:50:24.574Z,34.89
2023-05-06T09:51:24.562Z,32.74
2023-05-06T09:52:24.551Z,31.08
2023-05-06T09:53:24.569Z,34.16
2023-05-06T09:54:24.537Z,36.17
2023-05-06T09:55:24.520Z,34.43
2023-05-06T09:56:24.506Z,34.83
2023-05-06T09:57:24.500Z,34.52
2023-05-06T09:58:24.496Z,35.31
2023-05-06T09:59:24.510Z,34.11
2023-05-06T10:00:24.469Z,34.50
2023-05-06T10:01:35.932Z,30.86
2023-05-06T10:02:25.698Z,34.83
2023-05-06T10:03:24.529Z,33.92
2023-05-06T10:04:26.298Z,33.60
2023-05-06T10:05:24.518Z,32.01
2023-05-06T10:06:24.404Z,34.14
2023-05-06T10:07:24.403Z,32.32
2023-05-06T10:08:24.405Z,34.17
2023-05-06T10:09:24.381Z,36.90
2023-05-06T10:10:25.606Z,37.07
2023-05-06T10:11:24.388Z,35.31
2023-05-06T10:12:24.349Z,33.86
2023-05-06T10:13:24.355Z,33.84
2023-05-06T10:14:24.330Z,33.74
2023-05-06T10:15:24.319Z,33.32
2023-05-06T10:16:24.332Z,31.92
2023-05-06T10:17:24.340Z,32.20
2023-05-06T10:18:24.290Z,31.80
2023-05-06T10:19:24.282Z,31.80
2023-05-06T10:20:24.260Z,30.32
2023-05-06T10:21:24.268Z,32.57
2023-05-06T10:22:24.247Z,32.67
2023-05-06T10:23:24.259Z,33.97
2023-05-06T10:24:24.225Z,34.34
2023-05-06T10:25:24.215Z,33.32
2023-05-06T10:26:24.204Z,32.70
2023-05-06T10:27:24.203Z,34.00
2023-05-06T10:28:30.523Z,31.77
2023-05-06T10:29:25.181Z,31.46
2023-05-06T10:30:24.158Z,30.00
2023-05-06T10:31:24.162Z,33.25
2023-05-06T10:32:24.158Z,33.54
2023-05-06T10:33:24.141Z,31.93
2023-05-06T10:34:24.133Z,30.71
2023-05-06T10:35:24.125Z,31.25
2023-05-06T10:36:24.096Z,32.17
2023-05-06T10:37:24.109Z,31.25
2023-05-06T10:38:24.081Z,32.65
2023-05-06T10:39:24.047Z,31.18
2023-05-06T10:40:24.052Z,33.70
2023-05-06T10:41:24.073Z,34.09
2023-05-06T10:42:24.042Z,33.65
2023-05-06T10:43:24.020Z,33.33
2023-05-06T10:44:24.006Z,30.00
2023-05-06T10:45:24.024Z,32.35
2023-05-06T10:46:23.981Z,33.04
2023-05-06T10:47:24.041Z,32.34
2023-05-06T10:48:23.966Z,33.64
2023-05-06T10:49:23.959Z,32.51
2023-05-06T10:50:23.952Z,31.73
2023-05-06T10:51:23.948Z,33.94
2023-05-06T10:52:23.937Z,30.90
2023-05-06T10:53:23.942Z,34.85
2023-05-06T10:54:23.910Z,33.20
2023-05-06T10:55:23.891Z,31.80
2023-05-06T10:56:23.879Z,30.12
2023-05-06T10:57:23.877Z,31.79
2023-05-06T10:58:23.859Z,34.74
2023-05-06T10:59:23.874Z,36.22
2023-05-06T11:00:23.880Z,34.17
2023-05-06T11:01:23.862Z,32.42
2023-05-06T11:02:23.900Z,33.42
2023-05-06T11:03:24.124Z,31.78
2023-05-06T11:04:23.804Z,31.07
2023-05-06T11:05:23.812Z,29.25
2023-05-06T11:06:23.787Z,31.77
2023-05-06T11:07:23.785Z,32.36
2023-05-06T11:08:23.757Z,28.92
2023-05-06T11:09:23.739Z,30.32
2023-05-06T11:10:23.740Z,28.30
2023-05-06T11:11:23.759Z,27.15
2023-05-06T11:12:23.725Z,27.90
2023-05-06T11:13:23.862Z,30.25
2023-05-06T11:14:23.693Z,33.26
2023-05-06T11:15:23.703Z,32.95
2023-05-06T11:16:23.707Z,33.22
2023-05-06T11:17:23.706Z,32.78
2023-05-06T11:18:23.649Z,32.04
2023-05-06T11:19:23.653Z,32.33
2023-05-06T11:20:23.680Z,31.19
2023-05-06T11:21:23.621Z,29.08
2023-05-06T11:22:23.610Z,29.32
2023-05-06T11:23:23.628Z,33.28
2023-05-06T11:24:23.590Z,33.77
2023-05-06T11:25:23.570Z,33.54
2023-05-06T11:26:23.564Z,33.50
2023-05-06T11:27:23.557Z,32.67
2023-05-06T11:28:23.547Z,31.03
2023-05-06T11:29:23.583Z,30.40
2023-05-06T11:30:23.536Z,27.80
2023-05-06T11:31:23.556Z,31.05
2023-05-06T11:32:23.545Z,31.64
2023-05-06T11:33:23.507Z,31.10
2023-05-06T11:34:23.510Z,30.21
2023-05-06T11:35:23.516Z,29.10
2023-05-06T11:36:23.470Z,28.63
2023-05-06T11:37:23.488Z,29.47
2023-05-06T11:38:23.451Z,29.50
2023-05-06T11:39:23.448Z,30.94
2023-05-06T11:40:23.433Z,32.18
2023-05-06T11:41:23.495Z,33.28
2023-05-06T11:42:23.408Z,33.25
2023-05-06T11:43:23.407Z,33.01
2023-05-06T11:44:23.385Z,32.98
2023-05-06T11:45:23.384Z,32.45
2023-05-06T11:46:23.548Z,30.82
2023-05-06T11:47:23.387Z,29.10
2023-05-06T11:48:23.355Z,29.76
2023-05-06T11:49:23.341Z,29.96
2023-05-06T11:50:23.330Z,31.16
2023-05-06T11:51:23.318Z,31.65
2023-05-06T11:52:23.355Z,31.02
2023-05-06T11:53:23.349Z,28.91
2023-05-06T11:54:23.290Z,29.83
2023-05-06T11:55:23.262Z,31.55
2023-05-06T11:56:23.264Z,31.34
2023-05-06T11:57:23.245Z,32.13
2023-05-06T11:58:23.259Z,30.09
2023-05-06T11:59:23.251Z,31.42
2023-05-06T12:00:23.218Z,30.91
2023-05-06T12:01:23.210Z,31.91
2023-05-06T12:02:23.251Z,30.79
2023-05-06T12:03:23.239Z,31.18
2023-05-06T12:04:23.206Z,29.85
2023-05-06T12:05:23.200Z,31.29
2023-05-06T12:06:24.563Z,31.27
2023-05-06T12:07:23.148Z,29.78
2023-05-06T12:08:27.479Z,30.77
2023-05-06T12:09:24.129Z,30.35
2023-05-06T12:10:23.124Z,29.33
2023-05-06T12:11:23.132Z,26.92
2023-05-06T12:12:23.098Z,28.03
2023-05-06T12:13:23.243Z,29.23
2023-05-06T12:14:23.089Z,28.83
2023-05-06T12:15:23.063Z,28.81
2023-05-06T12:16:23.118Z,30.34
2023-05-06T12:17:23.071Z,30.94
2023-05-06T12:18:23.036Z,30.22
2023-05-06T12:19:23.031Z,28.56
2023-05-06T12:20:23.017Z,31.02
2023-05-06T12:21:23.014Z,31.32
2023-05-06T12:22:22.994Z,32.32
2023-05-06T12:23:23.005Z,32.01
2023-05-06T12:24:22.972Z,31.98
2023-05-06T12:25:22.964Z,30.47
2023-05-06T12:26:22.950Z,30.86
2023-05-06T12:27:22.940Z,30.34
2023-05-06T12:28:22.937Z,28.51
2023-05-06T12:29:22.966Z,27.59
2023-05-06T12:30:22.905Z,26.29
2023-05-06T12:31:23.056Z,26.71
2023-05-06T12:32:22.945Z,29.23
2023-05-06T12:33:22.876Z,28.91
2023-05-06T12:34:22.877Z,28.01
2023-05-06T12:35:22.886Z,28.80
2023-05-06T12:36:22.842Z,28.40
2023-05-06T12:37:22.832Z,28.50
2023-05-06T12:38:22.828Z,28.90
2023-05-06T12:39:22.812Z,28.70
2023-05-06T12:40:22.810Z,29.10
2023-05-06T12:41:22.844Z,29.91
2023-05-06T12:42:22.790Z,29.52
2023-05-06T12:43:22.774Z,29.71
2023-05-06T12:44:22.774Z,28.60
2023-05-06T12:45:22.752Z,29.02
2023-05-06T12:46:22.782Z,28.91
2023-05-06T12:47:22.857Z,27.11
2023-05-06T12:48:22.724Z,28.12
2023-05-06T12:49:22.696Z,29.14
2023-05-06T12:50:22.701Z,30.15
2023-05-06T12:51:22.689Z,30.74
2023-05-06T12:52:22.692Z,30.84
2023-05-06T12:53:22.714Z,30.73
2023-05-06T12:54:22.669Z,29.92
2023-05-06T12:55:22.659Z,29.81
2023-05-06T12:56:22.702Z,30.21